sensor_id;sensor_type;location;lat;lon;timestamp;temperature;humidity
8914;DHT22;4492;48.736;9.092;2022-07-22T00:02:05;16.00;99.90
8914;DHT22;4492;48.736;9.092;2022-07-22T00:04:31;16.00;99.90
8914;DHT22;4492;48.736;9.092;2022-07-22T00:06:57;16.10;99.90
8914;DHT22;4492;48.736;9.092;2022-07-22T00:09:23;16.00;99.90
8914;DHT22;4492;48.736;9.092;2022-07-22T00:11:48;16.00;99.90
8914;DHT22;4492;48.736;9.092;2022-07-22T00:14:14;16.00;99.90
8914;DHT22;4492;48.736;9.092;2022-07-22T00:16:40;16.00;99.90
8914;DHT22;4492;48.736;9.092;2022-07-22T00:19:05;15.90;99.90
8914;DHT22;4492;48.736;9.092;2022-07-22T00:21:31;15.90;99.90
8914;DHT22;4492;48.736;9.092;2022-07-22T00:23:56;16.00;99.90
8914;DHT22;4492;48.736;9.092;2022-07-22T00:26:22;16.00;99.90
8914;DHT22;4492;48.736;9.092;2022-07-22T00:28:47;15.90;99.90
8914;DHT22;4492;48.736;9.092;2022-07-22T00:31:13;15.90;99.90
8914;DHT22;4492;48.736;9.092;2022-07-22T00:33:38;15.90;99.90
8914;DHT22;4492;48.736;9.092;2022-07-22T00:36:04;15.80;99.90
8914;DHT22;4492;48.736;9.092;2022-07-22T00:38:31;15.80;99.90
8914;DHT22;4492;48.736;9.092;2022-07-22T00:40:57;15.80;99.90
8914;DHT22;4492;48.736;9.092;2022-07-22T00:43:23;15.80;99.90
8914;DHT22;4492;48.736;9.092;2022-07-22T00:45:48;15.80;99.90
8914;DHT22;4492;48.736;9.092;2022-07-22T00:48:14;15.80;99.90
8914;DHT22;4492;48.736;9.092;2022-07-22T00:50:39;15.80;99.90
8914;DHT22;4492;48.736;9.092;2022-07-22T00:53:05;15.70;99.90
8914;DHT22;4492;48.736;9.092;2022-07-22T00:55:33;15.70;99.90
8914;DHT22;4492;48.736;9.092;2022-07-22T00:57:59;15.70;99.90
8914;DHT22;4492;48.736;9.092;2022-07-22T01:00:25;15.60;99.90
8914;DHT22;4492;48.736;9.092;2022-07-22T01:02:50;15.60;99.90
8914;DHT22;4492;48.736;9.092;2022-07-22T01:05:16;15.60;99.90
8914;DHT22;4492;48.736;9.092;2022-07-22T01:07:43;15.50;99.90
8914;DHT22;4492;48.736;9.092;2022-07-22T01:10:09;15.50;99.90
8914;DHT22;4492;48.736;9.092;2022-07-22T01:12:36;15.50;99.90
8914;DHT22;4492;48.736;9.092;2022-07-22T01:15:01;15.50;99.90
8914;DHT22;4492;48.736;9.092;2022-07-22T01:17:27;15.50;99.90
8914;DHT22;4492;48.736;9.092;2022-07-22T01:19:52;15.50;99.90
8914;DHT22;4492;48.736;9.092;2022-07-22T01:22:18;15.60;99.90
8914;DHT22;4492;48.736;9.092;2022-07-22T01:24:43;15.60;99.90
8914;DHT22;4492;48.736;9.092;2022-07-22T01:27:09;15.60;99.90
8914;DHT22;4492;48.736;9.092;2022-07-22T01:29:35;15.60;99.90
8914;DHT22;4492;48.736;9.092;2022-07-22T01:32:00;15.50;99.90
8914;DHT22;4492;48.736;9.092;2022-07-22T01:34:26;15.50;99.90
8914;DHT22;4492;48.736;9.092;2022-07-22T01:36:51;15.50;99.90
8914;DHT22;4492;48.736;9.092;2022-07-22T01:39:18;15.40;99.90
8914;DHT22;4492;48.736;9.092;2022-07-22T01:41:43;15.40;99.90
8914;DHT22;4492;48.736;9.092;2022-07-22T01:44:09;15.30;99.90
8914;DHT22;4492;48.736;9.092;2022-07-22T01:46:35;15.30;99.90
8914;DHT22;4492;48.736;9.092;2022-07-22T01:49:00;15.30;99.90
8914;DHT22;4492;48.736;9.092;2022-07-22T01:51:26;15.30;99.90
8914;DHT22;4492;48.736;9.092;2022-07-22T01:53:51;15.40;99.90
8914;DHT22;4492;48.736;9.092;2022-07-22T01:56:17;15.40;99.90
8914;DHT22;4492;48.736;9.092;2022-07-22T01:58:43;15.30;99.90
8914;DHT22;4492;48.736;9.092;2022-07-22T02:01:08;15.30;99.90
8914;DHT22;4492;48.736;9.092;2022-07-22T02:03:34;15.30;99.90
8914;DHT22;4492;48.736;9.092;2022-07-22T02:06:00;15.30;99.90
8914;DHT22;4492;48.736;9.092;2022-07-22T02:08:25;15.40;99.90
8914;DHT22;4492;48.736;9.092;2022-07-22T02:10:51;15.30;99.90
8914;DHT22;4492;48.736;9.092;2022-07-22T02:13:16;15.30;99.90
8914;DHT22;4492;48.736;9.092;2022-07-22T02:15:42;15.20;99.90
8914;DHT22;4492;48.736;9.092;2022-07-22T02:18:17;15.20;99.90
8914;DHT22;4492;48.736;9.092;2022-07-22T02:20:43;15.10;99.90
8914;DHT22;4492;48.736;9.092;2022-07-22T02:23:10;15.00;99.90
8914;DHT22;4492;48.736;9.092;2022-07-22T02:25:41;15.00;99.90
8914;DHT22;4492;48.736;9.092;2022-07-22T02:28:07;14.90;99.90
8914;DHT22;4492;48.736;9.092;2022-07-22T02:30:33;14.90;99.90
8914;DHT22;4492;48.736;9.092;2022-07-22T02:32:59;14.90;99.90
8914;DHT22;4492;48.736;9.092;2022-07-22T02:35:24;15.00;99.90
8914;DHT22;4492;48.736;9.092;2022-07-22T02:37:50;15.10;99.90
8914;DHT22;4492;48.736;9.092;2022-07-22T02:40:16;15.20;99.90
8914;DHT22;4492;48.736;9.092;2022-07-22T02:42:42;15.30;99.90
8914;DHT22;4492;48.736;9.092;2022-07-22T02:45:08;15.40;99.90
8914;DHT22;4492;48.736;9.092;2022-07-22T02:47:34;15.40;99.90
8914;DHT22;4492;48.736;9.092;2022-07-22T02:50:00;15.40;99.90
8914;DHT22;4492;48.736;9.092;2022-07-22T02:52:25;15.50;99.90
8914;DHT22;4492;48.736;9.092;2022-07-22T02:54:51;15.50;99.90
8914;DHT22;4492;48.736;9.092;2022-07-22T02:57:17;15.50;99.90
8914;DHT22;4492;48.736;9.092;2022-07-22T02:59:43;15.60;99.90
8914;DHT22;4492;48.736;9.092;2022-07-22T03:02:08;15.70;99.90
8914;DHT22;4492;48.736;9.092;2022-07-22T03:04:34;15.80;99.90
8914;DHT22;4492;48.736;9.092;2022-07-22T03:06:59;15.80;99.90
8914;DHT22;4492;48.736;9.092;2022-07-22T03:09:25;15.80;99.90
8914;DHT22;4492;48.736;9.092;2022-07-22T03:11:50;15.80;99.90
8914;DHT22;4492;48.736;9.092;2022-07-22T03:14:16;15.80;99.90
8914;DHT22;4492;48.736;9.092;2022-07-22T03:16:43;15.80;99.90
8914;DHT22;4492;48.736;9.092;2022-07-22T03:19:09;15.90;99.90
8914;DHT22;4492;48.736;9.092;2022-07-22T03:21:35;16.00;99.90
8914;DHT22;4492;48.736;9.092;2022-07-22T03:24:00;16.00;99.90
8914;DHT22;4492;48.736;9.092;2022-07-22T03:26:26;16.00;99.90
8914;DHT22;4492;48.736;9.092;2022-07-22T03:28:51;16.00;99.90
8914;DHT22;4492;48.736;9.092;2022-07-22T03:31:17;16.00;99.90
8914;DHT22;4492;48.736;9.092;2022-07-22T03:33:43;15.90;99.90
8914;DHT22;4492;48.736;9.092;2022-07-22T03:36:08;16.00;99.90
8914;DHT22;4492;48.736;9.092;2022-07-22T03:38:35;15.90;99.90
8914;DHT22;4492;48.736;9.092;2022-07-22T03:41:01;15.90;99.90
8914;DHT22;4492;48.736;9.092;2022-07-22T03:43:27;15.90;99.90
8914;DHT22;4492;48.736;9.092;2022-07-22T03:45:52;15.80;99.90
8914;DHT22;4492;48.736;9.092;2022-07-22T03:48:18;15.80;99.90
8914;DHT22;4492;48.736;9.092;2022-07-22T03:50:43;15.70;99.90
8914;DHT22;4492;48.736;9.092;2022-07-22T03:53:09;15.70;99.90
8914;DHT22;4492;48.736;9.092;2022-07-22T03:55:35;15.70;99.90
8914;DHT22;4492;48.736;9.092;2022-07-22T03:58:00;15.70;99.90
8914;DHT22;4492;48.736;9.092;2022-07-22T04:00:26;15.60;99.90
8914;DHT22;4492;48.736;9.092;2022-07-22T04:02:51;15.60;99.90
8914;DHT22;4492;48.736;9.092;2022-07-22T04:05:17;15.70;99.90
8914;DHT22;4492;48.736;9.092;2022-07-22T04:07:42;15.70;99.90
8914;DHT22;4492;48.736;9.092;2022-07-22T04:10:08;15.70;99.90
8914;DHT22;4492;48.736;9.092;2022-07-22T04:12:35;15.80;99.90
8914;DHT22;4492;48.736;9.092;2022-07-22T04:15:01;15.70;99.90
8914;DHT22;4492;48.736;9.092;2022-07-22T04:17:27;15.70;99.90
8914;DHT22;4492;48.736;9.092;2022-07-22T04:19:53;15.70;99.90
8914;DHT22;4492;48.736;9.092;2022-07-22T04:22:18;15.80;99.90
8914;DHT22;4492;48.736;9.092;2022-07-22T04:24:44;15.80;99.90
8914;DHT22;4492;48.736;9.092;2022-07-22T04:27:10;15.80;99.90
8914;DHT22;4492;48.736;9.092;2022-07-22T04:29:35;15.90;99.90
8914;DHT22;4492;48.736;9.092;2022-07-22T04:32:01;15.90;99.90
8914;DHT22;4492;48.736;9.092;2022-07-22T04:34:26;15.90;99.90
8914;DHT22;4492;48.736;9.092;2022-07-22T04:36:52;15.90;99.90
8914;DHT22;4492;48.736;9.092;2022-07-22T04:39:17;16.00;99.90
8914;DHT22;4492;48.736;9.092;2022-07-22T04:41:43;16.00;99.90
8914;DHT22;4492;48.736;9.092;2022-07-22T04:44:09;16.00;99.90
8914;DHT22;4492;48.736;9.092;2022-07-22T04:46:34;16.10;99.90
8914;DHT22;4492;48.736;9.092;2022-07-22T04:49:00;16.10;99.90
8914;DHT22;4492;48.736;9.092;2022-07-22T04:51:25;16.10;99.90
8914;DHT22;4492;48.736;9.092;2022-07-22T04:53:51;16.10;99.90
8914;DHT22;4492;48.736;9.092;2022-07-22T04:56:16;16.10;99.90
8914;DHT22;4492;48.736;9.092;2022-07-22T04:58:42;16.10;99.90
8914;DHT22;4492;48.736;9.092;2022-07-22T05:01:07;16.10;99.90
8914;DHT22;4492;48.736;9.092;2022-07-22T05:03:33;16.20;99.90
8914;DHT22;4492;48.736;9.092;2022-07-22T05:05:59;16.20;99.90
8914;DHT22;4492;48.736;9.092;2022-07-22T05:08:25;16.30;99.90
8914;DHT22;4492;48.736;9.092;2022-07-22T05:10:50;16.30;99.90
8914;DHT22;4492;48.736;9.092;2022-07-22T05:13:16;16.40;99.90
8914;DHT22;4492;48.736;9.092;2022-07-22T05:15:42;16.40;99.90
8914;DHT22;4492;48.736;9.092;2022-07-22T05:18:07;16.50;99.90
8914;DHT22;4492;48.736;9.092;2022-07-22T05:20:33;16.50;99.90
8914;DHT22;4492;48.736;9.092;2022-07-22T05:22:58;16.50;99.90
8914;DHT22;4492;48.736;9.092;2022-07-22T05:25:24;16.50;99.90
8914;DHT22;4492;48.736;9.092;2022-07-22T05:27:54;16.50;99.90
8914;DHT22;4492;48.736;9.092;2022-07-22T05:30:20;16.60;99.90
8914;DHT22;4492;48.736;9.092;2022-07-22T05:32:46;16.70;99.90
8914;DHT22;4492;48.736;9.092;2022-07-22T05:35:12;16.70;99.90
8914;DHT22;4492;48.736;9.092;2022-07-22T05:37:37;16.80;99.90
8914;DHT22;4492;48.736;9.092;2022-07-22T05:40:03;16.80;99.90
8914;DHT22;4492;48.736;9.092;2022-07-22T05:42:29;16.80;99.90
8914;DHT22;4492;48.736;9.092;2022-07-22T05:44:54;16.90;99.90
8914;DHT22;4492;48.736;9.092;2022-07-22T05:47:20;17.00;99.90
8914;DHT22;4492;48.736;9.092;2022-07-22T05:49:45;17.00;99.90
8914;DHT22;4492;48.736;9.092;2022-07-22T05:52:12;17.10;99.90
8914;DHT22;4492;48.736;9.092;2022-07-22T05:54:37;17.20;99.90
8914;DHT22;4492;48.736;9.092;2022-07-22T05:57:03;17.30;99.90
8914;DHT22;4492;48.736;9.092;2022-07-22T05:59:28;17.30;99.90
8914;DHT22;4492;48.736;9.092;2022-07-22T06:01:54;17.40;99.90
8914;DHT22;4492;48.736;9.092;2022-07-22T06:04:20;17.50;99.90
8914;DHT22;4492;48.736;9.092;2022-07-22T06:06:46;17.60;99.90
8914;DHT22;4492;48.736;9.092;2022-07-22T06:09:11;17.80;99.90
8914;DHT22;4492;48.736;9.092;2022-07-22T06:11:37;17.80;99.90
8914;DHT22;4492;48.736;9.092;2022-07-22T06:14:03;17.90;99.90
8914;DHT22;4492;48.736;9.092;2022-07-22T06:16:28;18.00;99.90
8914;DHT22;4492;48.736;9.092;2022-07-22T06:18:54;18.10;99.90
8914;DHT22;4492;48.736;9.092;2022-07-22T06:21:19;18.30;99.90
8914;DHT22;4492;48.736;9.092;2022-07-22T06:23:45;18.40;99.90
8914;DHT22;4492;48.736;9.092;2022-07-22T06:26:10;18.50;99.90
8914;DHT22;4492;48.736;9.092;2022-07-22T06:28:36;18.60;99.90
8914;DHT22;4492;48.736;9.092;2022-07-22T06:31:01;18.80;99.90
8914;DHT22;4492;48.736;9.092;2022-07-22T06:33:27;18.90;99.90
8914;DHT22;4492;48.736;9.092;2022-07-22T06:35:53;19.00;99.90
8914;DHT22;4492;48.736;9.092;2022-07-22T06:38:18;19.10;99.90
8914;DHT22;4492;48.736;9.092;2022-07-22T06:40:44;19.30;99.90
8914;DHT22;4492;48.736;9.092;2022-07-22T06:43:09;19.40;99.90
8914;DHT22;4492;48.736;9.092;2022-07-22T06:45:35;19.50;99.90
8914;DHT22;4492;48.736;9.092;2022-07-22T06:48:00;19.70;99.90
8914;DHT22;4492;48.736;9.092;2022-07-22T06:50:26;19.80;99.90
8914;DHT22;4492;48.736;9.092;2022-07-22T06:52:52;19.90;99.90
8914;DHT22;4492;48.736;9.092;2022-07-22T06:55:18;20.00;99.90
8914;DHT22;4492;48.736;9.092;2022-07-22T06:57:43;20.20;99.90
8914;DHT22;4492;48.736;9.092;2022-07-22T07:00:09;20.30;99.90
8914;DHT22;4492;48.736;9.092;2022-07-22T07:02:35;20.50;99.90
8914;DHT22;4492;48.736;9.092;2022-07-22T07:05:01;20.70;99.90
8914;DHT22;4492;48.736;9.092;2022-07-22T07:07:27;20.90;99.90
8914;DHT22;4492;48.736;9.092;2022-07-22T07:09:52;21.00;99.90
8914;DHT22;4492;48.736;9.092;2022-07-22T07:12:18;21.10;99.90
8914;DHT22;4492;48.736;9.092;2022-07-22T07:14:44;21.30;99.90
8914;DHT22;4492;48.736;9.092;2022-07-22T07:17:09;21.50;99.90
8914;DHT22;4492;48.736;9.092;2022-07-22T07:19:35;21.70;99.90
8914;DHT22;4492;48.736;9.092;2022-07-22T07:22:00;21.80;99.90
8914;DHT22;4492;48.736;9.092;2022-07-22T07:24:26;21.90;99.90
8914;DHT22;4492;48.736;9.092;2022-07-22T07:26:51;22.00;99.90
8914;DHT22;4492;48.736;9.092;2022-07-22T07:29:17;22.10;99.90
8914;DHT22;4492;48.736;9.092;2022-07-22T07:31:42;22.30;99.90
8914;DHT22;4492;48.736;9.092;2022-07-22T07:34:08;22.40;99.90
8914;DHT22;4492;48.736;9.092;2022-07-22T07:36:33;22.40;99.90
8914;DHT22;4492;48.736;9.092;2022-07-22T07:38:59;22.50;99.90
8914;DHT22;4492;48.736;9.092;2022-07-22T07:41:24;22.60;99.90
8914;DHT22;4492;48.736;9.092;2022-07-22T07:43:50;22.60;99.90
8914;DHT22;4492;48.736;9.092;2022-07-22T07:46:16;22.80;99.90
8914;DHT22;4492;48.736;9.092;2022-07-22T07:48:41;22.90;99.90
8914;DHT22;4492;48.736;9.092;2022-07-22T07:51:07;22.90;99.90
8914;DHT22;4492;48.736;9.092;2022-07-22T07:53:33;23.00;99.90
8914;DHT22;4492;48.736;9.092;2022-07-22T07:55:58;23.20;99.90
8914;DHT22;4492;48.736;9.092;2022-07-22T07:58:24;23.30;99.90
8914;DHT22;4492;48.736;9.092;2022-07-22T08:00:50;23.30;99.90
8914;DHT22;4492;48.736;9.092;2022-07-22T08:03:15;23.40;99.90
8914;DHT22;4492;48.736;9.092;2022-07-22T08:05:41;23.60;99.90
8914;DHT22;4492;48.736;9.092;2022-07-22T08:08:08;23.60;99.60
8914;DHT22;4492;48.736;9.092;2022-07-22T08:10:33;23.60;99.50
8914;DHT22;4492;48.736;9.092;2022-07-22T08:12:59;23.60;99.50
8914;DHT22;4492;48.736;9.092;2022-07-22T08:15:26;23.80;99.30
8914;DHT22;4492;48.736;9.092;2022-07-22T08:17:52;23.90;99.10
8914;DHT22;4492;48.736;9.092;2022-07-22T08:20:17;24.00;99.40
8914;DHT22;4492;48.736;9.092;2022-07-22T08:22:43;24.00;98.10
8914;DHT22;4492;48.736;9.092;2022-07-22T08:25:09;24.00;97.70
8914;DHT22;4492;48.736;9.092;2022-07-22T08:27:35;24.00;97.50
8914;DHT22;4492;48.736;9.092;2022-07-22T08:30:01;24.10;97.70
8914;DHT22;4492;48.736;9.092;2022-07-22T08:32:30;24.00;97.40
8914;DHT22;4492;48.736;9.092;2022-07-22T08:34:55;24.10;97.60
8914;DHT22;4492;48.736;9.092;2022-07-22T08:37:21;24.10;97.60
8914;DHT22;4492;48.736;9.092;2022-07-22T08:39:46;24.10;97.30
8914;DHT22;4492;48.736;9.092;2022-07-22T08:42:12;24.30;97.70
8914;DHT22;4492;48.736;9.092;2022-07-22T08:44:39;24.40;96.90
8914;DHT22;4492;48.736;9.092;2022-07-22T08:47:05;24.60;96.70
8914;DHT22;4492;48.736;9.092;2022-07-22T08:49:31;24.70;96.50
8914;DHT22;4492;48.736;9.092;2022-07-22T08:51:56;24.80;96.90
8914;DHT22;4492;48.736;9.092;2022-07-22T08:54:22;24.90;95.50
8914;DHT22;4492;48.736;9.092;2022-07-22T08:56:49;24.90;95.90
8914;DHT22;4492;48.736;9.092;2022-07-22T08:59:16;25.00;96.00
8914;DHT22;4492;48.736;9.092;2022-07-22T09:02:09;25.00;95.70
8914;DHT22;4492;48.736;9.092;2022-07-22T09:07:33;25.20;95.90
8914;DHT22;4492;48.736;9.092;2022-07-22T09:10:04;25.30;95.70
8914;DHT22;4492;48.736;9.092;2022-07-22T09:12:30;25.40;95.10
8914;DHT22;4492;48.736;9.092;2022-07-22T09:14:59;25.50;94.40
8914;DHT22;4492;48.736;9.092;2022-07-22T09:17:34;25.50;93.50
8914;DHT22;4492;48.736;9.092;2022-07-22T09:20:03;25.60;93.20
8914;DHT22;4492;48.736;9.092;2022-07-22T09:30:38;25.80;92.70
8914;DHT22;4492;48.736;9.092;2022-07-22T09:33:05;26.00;92.00
8914;DHT22;4492;48.736;9.092;2022-07-22T09:35:32;26.00;91.70
8914;DHT22;4492;48.736;9.092;2022-07-22T09:37:59;26.20;91.70
8914;DHT22;4492;48.736;9.092;2022-07-22T09:40:27;26.30;91.30
8914;DHT22;4492;48.736;9.092;2022-07-22T09:45:21;26.40;91.30
8914;DHT22;4492;48.736;9.092;2022-07-22T09:47:48;26.40;91.60
8914;DHT22;4492;48.736;9.092;2022-07-22T09:50:24;26.30;91.30
8914;DHT22;4492;48.736;9.092;2022-07-22T09:52:52;26.30;90.80
8914;DHT22;4492;48.736;9.092;2022-07-22T09:55:19;26.20;90.50
8914;DHT22;4492;48.736;9.092;2022-07-22T09:57:46;26.20;91.20
8914;DHT22;4492;48.736;9.092;2022-07-22T10:00:13;26.30;90.80
8914;DHT22;4492;48.736;9.092;2022-07-22T10:02:46;26.40;91.80
8914;DHT22;4492;48.736;9.092;2022-07-22T10:05:14;26.50;90.90
8914;DHT22;4492;48.736;9.092;2022-07-22T10:07:43;26.40;89.40
8914;DHT22;4492;48.736;9.092;2022-07-22T10:10:11;26.30;89.30
8914;DHT22;4492;48.736;9.092;2022-07-22T10:12:37;26.40;90.60
8914;DHT22;4492;48.736;9.092;2022-07-22T10:15:05;26.60;90.40
8914;DHT22;4492;48.736;9.092;2022-07-22T10:17:31;26.70;89.80
8914;DHT22;4492;48.736;9.092;2022-07-22T10:19:58;26.80;89.30
8914;DHT22;4492;48.736;9.092;2022-07-22T10:25:09;27.10;89.20
8914;DHT22;4492;48.736;9.092;2022-07-22T10:27:52;27.20;88.30
8914;DHT22;4492;48.736;9.092;2022-07-22T10:30:23;27.30;87.70
8914;DHT22;4492;48.736;9.092;2022-07-22T10:33:13;27.30;87.20
8914;DHT22;4492;48.736;9.092;2022-07-22T10:38:27;27.30;87.50
8914;DHT22;4492;48.736;9.092;2022-07-22T10:41:04;27.40;86.70
8914;DHT22;4492;48.736;9.092;2022-07-22T10:43:32;27.30;86.20
8914;DHT22;4492;48.736;9.092;2022-07-22T10:46:10;27.30;86.20
8914;DHT22;4492;48.736;9.092;2022-07-22T10:53:54;27.40;86.90
8914;DHT22;4492;48.736;9.092;2022-07-22T10:56:34;27.60;85.20
8914;DHT22;4492;48.736;9.092;2022-07-22T11:01:37;27.70;85.90
8914;DHT22;4492;48.736;9.092;2022-07-22T11:06:40;27.80;83.70
8914;DHT22;4492;48.736;9.092;2022-07-22T11:09:08;27.80;82.00
8914;DHT22;4492;48.736;9.092;2022-07-22T11:11:38;27.90;83.50
8914;DHT22;4492;48.736;9.092;2022-07-22T11:14:13;28.10;82.50
8914;DHT22;4492;48.736;9.092;2022-07-22T11:16:39;28.10;80.10
8914;DHT22;4492;48.736;9.092;2022-07-22T11:19:04;28.20;80.80
8914;DHT22;4492;48.736;9.092;2022-07-22T11:21:31;28.30;79.00
8914;DHT22;4492;48.736;9.092;2022-07-22T11:23:59;28.40;78.60
8914;DHT22;4492;48.736;9.092;2022-07-22T11:26:43;28.50;77.20
8914;DHT22;4492;48.736;9.092;2022-07-22T11:29:12;28.50;77.00
8914;DHT22;4492;48.736;9.092;2022-07-22T11:31:40;28.50;78.30
8914;DHT22;4492;48.736;9.092;2022-07-22T11:34:14;28.50;79.00
8914;DHT22;4492;48.736;9.092;2022-07-22T11:36:45;28.30;77.70
8914;DHT22;4492;48.736;9.092;2022-07-22T11:39:13;28.30;80.30
8914;DHT22;4492;48.736;9.092;2022-07-22T11:41:40;28.20;78.50
8914;DHT22;4492;48.736;9.092;2022-07-22T11:44:06;28.30;77.20
8914;DHT22;4492;48.736;9.092;2022-07-22T11:46:40;28.40;78.70
8914;DHT22;4492;48.736;9.092;2022-07-22T11:49:07;28.60;76.00
8914;DHT22;4492;48.736;9.092;2022-07-22T11:51:34;28.60;76.60
8914;DHT22;4492;48.736;9.092;2022-07-22T11:54:00;28.50;75.00
8914;DHT22;4492;48.736;9.092;2022-07-22T11:56:26;28.50;74.10
8914;DHT22;4492;48.736;9.092;2022-07-22T11:58:52;28.50;74.40
8914;DHT22;4492;48.736;9.092;2022-07-22T12:01:21;28.40;75.00
8914;DHT22;4492;48.736;9.092;2022-07-22T12:03:49;28.50;74.20
8914;DHT22;4492;48.736;9.092;2022-07-22T12:06:17;28.70;72.30
8914;DHT22;4492;48.736;9.092;2022-07-22T12:08:53;28.70;75.10
8914;DHT22;4492;48.736;9.092;2022-07-22T12:11:21;28.70;75.40
8914;DHT22;4492;48.736;9.092;2022-07-22T12:13:49;28.80;75.30
8914;DHT22;4492;48.736;9.092;2022-07-22T12:18:44;29.00;74.40
8914;DHT22;4492;48.736;9.092;2022-07-22T12:21:15;29.20;73.80
8914;DHT22;4492;48.736;9.092;2022-07-22T12:23:56;29.20;73.90
8914;DHT22;4492;48.736;9.092;2022-07-22T12:26:40;29.20;74.10
8914;DHT22;4492;48.736;9.092;2022-07-22T12:29:18;29.30;73.70
8914;DHT22;4492;48.736;9.092;2022-07-22T12:31:45;29.40;73.70
8914;DHT22;4492;48.736;9.092;2022-07-22T12:34:12;29.40;72.60
8914;DHT22;4492;48.736;9.092;2022-07-22T12:36:38;29.40;73.00
8914;DHT22;4492;48.736;9.092;2022-07-22T12:39:15;29.40;72.10
8914;DHT22;4492;48.736;9.092;2022-07-22T12:41:54;29.40;69.50
8914;DHT22;4492;48.736;9.092;2022-07-22T12:44:26;29.30;70.40
8914;DHT22;4492;48.736;9.092;2022-07-22T12:46:54;29.40;71.30
8914;DHT22;4492;48.736;9.092;2022-07-22T12:49:24;29.30;69.00
8914;DHT22;4492;48.736;9.092;2022-07-22T12:52:10;29.20;71.40
8914;DHT22;4492;48.736;9.092;2022-07-22T12:54:37;29.50;70.90
8914;DHT22;4492;48.736;9.092;2022-07-22T12:57:04;29.50;72.30
8914;DHT22;4492;48.736;9.092;2022-07-22T12:59:30;29.70;70.90
8914;DHT22;4492;48.736;9.092;2022-07-22T13:01:56;29.70;68.20
8914;DHT22;4492;48.736;9.092;2022-07-22T13:04:22;29.90;70.50
8914;DHT22;4492;48.736;9.092;2022-07-22T13:06:48;30.00;70.00
8914;DHT22;4492;48.736;9.092;2022-07-22T13:09:14;30.10;68.30
8914;DHT22;4492;48.736;9.092;2022-07-22T13:11:40;30.10;67.70
8914;DHT22;4492;48.736;9.092;2022-07-22T13:14:09;30.10;67.30
8914;DHT22;4492;48.736;9.092;2022-07-22T13:16:34;30.10;68.50
8914;DHT22;4492;48.736;9.092;2022-07-22T13:19:00;30.10;69.20
8914;DHT22;4492;48.736;9.092;2022-07-22T13:21:26;30.30;68.10
8914;DHT22;4492;48.736;9.092;2022-07-22T13:23:51;30.30;66.40
8914;DHT22;4492;48.736;9.092;2022-07-22T13:26:17;30.50;68.30
8914;DHT22;4492;48.736;9.092;2022-07-22T13:28:42;30.60;68.70
8914;DHT22;4492;48.736;9.092;2022-07-22T13:31:09;30.80;66.90
8914;DHT22;4492;48.736;9.092;2022-07-22T13:33:34;30.80;66.40
8914;DHT22;4492;48.736;9.092;2022-07-22T13:36:01;30.90;65.80
8914;DHT22;4492;48.736;9.092;2022-07-22T13:38:26;30.90;63.50
8914;DHT22;4492;48.736;9.092;2022-07-22T13:40:52;31.00;64.40
8914;DHT22;4492;48.736;9.092;2022-07-22T13:43:22;31.10;64.60
8914;DHT22;4492;48.736;9.092;2022-07-22T13:45:52;31.30;62.90
8914;DHT22;4492;48.736;9.092;2022-07-22T13:48:18;31.30;62.80
8914;DHT22;4492;48.736;9.092;2022-07-22T13:50:45;31.30;61.70
8914;DHT22;4492;48.736;9.092;2022-07-22T13:53:10;31.30;62.30
8914;DHT22;4492;48.736;9.092;2022-07-22T13:55:39;31.50;59.90
8914;DHT22;4492;48.736;9.092;2022-07-22T13:58:05;31.40;59.90
8914;DHT22;4492;48.736;9.092;2022-07-22T14:00:31;31.40;60.20
8914;DHT22;4492;48.736;9.092;2022-07-22T14:02:57;31.40;61.80
8914;DHT22;4492;48.736;9.092;2022-07-22T14:05:23;31.50;62.10
8914;DHT22;4492;48.736;9.092;2022-07-22T14:07:48;31.50;61.90
8914;DHT22;4492;48.736;9.092;2022-07-22T14:10:14;31.60;60.90
8914;DHT22;4492;48.736;9.092;2022-07-22T14:12:40;31.40;61.10
8914;DHT22;4492;48.736;9.092;2022-07-22T14:15:07;31.60;59.60
8914;DHT22;4492;48.736;9.092;2022-07-22T14:17:33;31.50;59.70
8914;DHT22;4492;48.736;9.092;2022-07-22T14:19:58;31.50;59.40
8914;DHT22;4492;48.736;9.092;2022-07-22T14:22:25;31.60;59.70
8914;DHT22;4492;48.736;9.092;2022-07-22T14:24:51;31.60;59.80
8914;DHT22;4492;48.736;9.092;2022-07-22T14:27:16;31.70;60.00
8914;DHT22;4492;48.736;9.092;2022-07-22T14:29:42;31.70;60.10
8914;DHT22;4492;48.736;9.092;2022-07-22T14:32:07;31.80;59.50
8914;DHT22;4492;48.736;9.092;2022-07-22T14:34:33;32.00;59.80
8914;DHT22;4492;48.736;9.092;2022-07-22T14:36:59;32.00;59.70
8914;DHT22;4492;48.736;9.092;2022-07-22T14:39:24;32.00;59.80
8914;DHT22;4492;48.736;9.092;2022-07-22T14:41:50;32.20;59.60
8914;DHT22;4492;48.736;9.092;2022-07-22T14:44:15;32.10;59.10
8914;DHT22;4492;48.736;9.092;2022-07-22T14:46:41;31.90;59.10
8914;DHT22;4492;48.736;9.092;2022-07-22T14:49:06;32.10;59.20
8914;DHT22;4492;48.736;9.092;2022-07-22T14:51:32;32.10;58.00
8914;DHT22;4492;48.736;9.092;2022-07-22T14:53:58;32.10;57.90
8914;DHT22;4492;48.736;9.092;2022-07-22T14:56:23;32.20;57.20
8914;DHT22;4492;48.736;9.092;2022-07-22T14:58:49;32.30;57.70
8914;DHT22;4492;48.736;9.092;2022-07-22T15:01:15;32.50;57.10
8914;DHT22;4492;48.736;9.092;2022-07-22T15:03:40;32.50;56.60
8914;DHT22;4492;48.736;9.092;2022-07-22T15:06:06;32.60;56.40
8914;DHT22;4492;48.736;9.092;2022-07-22T15:08:32;32.70;55.00
8914;DHT22;4492;48.736;9.092;2022-07-22T15:10:57;32.70;54.90
8914;DHT22;4492;48.736;9.092;2022-07-22T15:13:25;32.90;55.20
8914;DHT22;4492;48.736;9.092;2022-07-22T15:15:51;32.70;55.20
8914;DHT22;4492;48.736;9.092;2022-07-22T15:18:16;32.70;56.00
8914;DHT22;4492;48.736;9.092;2022-07-22T15:20:42;32.70;55.70
8914;DHT22;4492;48.736;9.092;2022-07-22T15:23:07;32.60;56.40
8914;DHT22;4492;48.736;9.092;2022-07-22T15:25:33;32.80;55.90
8914;DHT22;4492;48.736;9.092;2022-07-22T15:27:59;33.20;55.10
8914;DHT22;4492;48.736;9.092;2022-07-22T15:30:25;33.60;53.80
8914;DHT22;4492;48.736;9.092;2022-07-22T15:32:51;33.60;53.70
8914;DHT22;4492;48.736;9.092;2022-07-22T15:35:16;33.90;53.10
8914;DHT22;4492;48.736;9.092;2022-07-22T15:37:42;34.40;52.10
8914;DHT22;4492;48.736;9.092;2022-07-22T15:40:09;34.80;51.50
8914;DHT22;4492;48.736;9.092;2022-07-22T15:42:37;35.20;52.20
8914;DHT22;4492;48.736;9.092;2022-07-22T15:45:03;35.60;51.00
8914;DHT22;4492;48.736;9.092;2022-07-22T15:47:29;35.70;49.80
8914;DHT22;4492;48.736;9.092;2022-07-22T15:49:55;35.40;50.80
8914;DHT22;4492;48.736;9.092;2022-07-22T15:52:20;35.50;50.30
8914;DHT22;4492;48.736;9.092;2022-07-22T15:54:46;35.60;50.80
8914;DHT22;4492;48.736;9.092;2022-07-22T15:57:11;35.60;50.20
8914;DHT22;4492;48.736;9.092;2022-07-22T15:59:55;35.70;50.00
8914;DHT22;4492;48.736;9.092;2022-07-22T16:02:21;35.80;49.30
8914;DHT22;4492;48.736;9.092;2022-07-22T16:04:46;36.20;49.10
8914;DHT22;4492;48.736;9.092;2022-07-22T16:07:12;36.40;48.10
8914;DHT22;4492;48.736;9.092;2022-07-22T16:09:37;36.00;48.20
8914;DHT22;4492;48.736;9.092;2022-07-22T16:12:03;35.20;49.70
8914;DHT22;4492;48.736;9.092;2022-07-22T16:14:29;34.90;49.60
8914;DHT22;4492;48.736;9.092;2022-07-22T16:16:54;34.20;50.80
8914;DHT22;4492;48.736;9.092;2022-07-22T16:19:21;33.80;51.80
8914;DHT22;4492;48.736;9.092;2022-07-22T16:21:46;33.40;52.10
8914;DHT22;4492;48.736;9.092;2022-07-22T16:24:12;33.40;51.90
8914;DHT22;4492;48.736;9.092;2022-07-22T16:26:38;33.80;51.40
8914;DHT22;4492;48.736;9.092;2022-07-22T16:29:04;34.40;51.40
8914;DHT22;4492;48.736;9.092;2022-07-22T16:31:30;35.20;50.10